sensor_id;sensor_type;location;lat;lon;timestamp;temperature;humidity
34135;DHT22;20410;55.578;12.968;2023-01-28T00:01:36;-1.60;1.00
34135;DHT22;20410;55.578;12.968;2023-01-28T00:04:02;-1.60;1.00
34135;DHT22;20410;55.578;12.968;2023-01-28T00:06:28;-1.70;1.00
34135;DHT22;20410;55.578;12.968;2023-01-28T00:08:53;-1.70;1.00
34135;DHT22;20410;55.578;12.968;2023-01-28T00:11:20;-1.70;1.00
34135;DHT22;20410;55.578;12.968;2023-01-28T00:13:52;-1.70;1.00
34135;DHT22;20410;55.578;12.968;2023-01-28T00:16:19;-1.70;1.00
34135;DHT22;20410;55.578;12.968;2023-01-28T00:18:44;-1.70;1.00
34135;DHT22;20410;55.578;12.968;2023-01-28T00:21:12;-1.70;1.00
34135;DHT22;20410;55.578;12.968;2023-01-28T00:23:40;-1.70;1.00
34135;DHT22;20410;55.578;12.968;2023-01-28T00:26:12;-1.60;1.00
34135;DHT22;20410;55.578;12.968;2023-01-28T00:28:38;-1.60;1.00
34135;DHT22;20410;55.578;12.968;2023-01-28T00:33:38;-1.70;1.00
34135;DHT22;20410;55.578;12.968;2023-01-28T00:36:04;-1.70;1.00
34135;DHT22;20410;55.578;12.968;2023-01-28T00:38:32;-1.70;1.00
34135;DHT22;20410;55.578;12.968;2023-01-28T00:41:12;-1.70;1.00
34135;DHT22;20410;55.578;12.968;2023-01-28T00:43:38;-1.70;1.00
34135;DHT22;20410;55.578;12.968;2023-01-28T00:46:05;-1.70;1.00
34135;DHT22;20410;55.578;12.968;2023-01-28T00:48:32;-1.70;1.00
34135;DHT22;20410;55.578;12.968;2023-01-28T00:50:58;-1.70;1.00
34135;DHT22;20410;55.578;12.968;2023-01-28T00:53:24;-1.70;1.00
34135;DHT22;20410;55.578;12.968;2023-01-28T00:55:50;-1.80;1.00
34135;DHT22;20410;55.578;12.968;2023-01-28T00:58:15;-1.80;1.00
34135;DHT22;20410;55.578;12.968;2023-01-28T01:00:41;-1.90;1.00
34135;DHT22;20410;55.578;12.968;2023-01-28T01:03:06;-2.00;1.00
34135;DHT22;20410;55.578;12.968;2023-01-28T01:05:32;-2.00;1.00
34135;DHT22;20410;55.578;12.968;2023-01-28T01:07:58;-2.10;1.00
34135;DHT22;20410;55.578;12.968;2023-01-28T01:10:24;-2.20;1.00
34135;DHT22;20410;55.578;12.968;2023-01-28T01:12:50;-2.10;1.00
34135;DHT22;20410;55.578;12.968;2023-01-28T01:15:17;-2.10;1.00
34135;DHT22;20410;55.578;12.968;2023-01-28T01:17:45;-2.20;1.00
34135;DHT22;20410;55.578;12.968;2023-01-28T01:20:14;-2.20;1.00
34135;DHT22;20410;55.578;12.968;2023-01-28T01:22:40;-2.20;1.00
34135;DHT22;20410;55.578;12.968;2023-01-28T01:25:06;-2.20;1.00
34135;DHT22;20410;55.578;12.968;2023-01-28T01:27:31;-2.20;1.00
34135;DHT22;20410;55.578;12.968;2023-01-28T01:29:57;-2.10;1.00
34135;DHT22;20410;55.578;12.968;2023-01-28T01:32:32;-2.10;1.00
34135;DHT22;20410;55.578;12.968;2023-01-28T01:34:59;-2.00;1.00
34135;DHT22;20410;55.578;12.968;2023-01-28T01:37:25;-2.00;1.00
34135;DHT22;20410;55.578;12.968;2023-01-28T01:39:51;-2.00;1.00
34135;DHT22;20410;55.578;12.968;2023-01-28T01:42:16;-2.00;1.00
34135;DHT22;20410;55.578;12.968;2023-01-28T01:45:14;-2.00;1.00
34135;DHT22;20410;55.578;12.968;2023-01-28T01:50:17;-2.00;1.00
34135;DHT22;20410;55.578;12.968;2023-01-28T01:52:45;-2.00;1.00
34135;DHT22;20410;55.578;12.968;2023-01-28T01:55:15;-2.00;1.00
34135;DHT22;20410;55.578;12.968;2023-01-28T01:57:43;-2.10;1.00
34135;DHT22;20410;55.578;12.968;2023-01-28T02:00:10;-2.10;1.00
34135;DHT22;20410;55.578;12.968;2023-01-28T02:02:39;-2.00;1.00
34135;DHT22;20410;55.578;12.968;2023-01-28T02:05:09;-1.90;1.00
34135;DHT22;20410;55.578;12.968;2023-01-28T02:07:36;-1.90;1.00
34135;DHT22;20410;55.578;12.968;2023-01-28T02:10:03;-1.90;1.00
34135;DHT22;20410;55.578;12.968;2023-01-28T02:12:33;-1.90;1.00
34135;DHT22;20410;55.578;12.968;2023-01-28T02:15:07;-1.90;1.00
34135;DHT22;20410;55.578;12.968;2023-01-28T02:17:35;-2.00;1.00
34135;DHT22;20410;55.578;12.968;2023-01-28T02:20:10;-2.00;1.00
34135;DHT22;20410;55.578;12.968;2023-01-28T02:31:17;-2.20;1.00
34135;DHT22;20410;55.578;12.968;2023-01-28T02:36:48;-2.30;1.00
34135;DHT22;20410;55.578;12.968;2023-01-28T02:39:19;-2.20;1.00
34135;DHT22;20410;55.578;12.968;2023-01-28T02:44:31;-2.10;1.00
34135;DHT22;20410;55.578;12.968;2023-01-28T02:46:56;-2.10;1.00
34135;DHT22;20410;55.578;12.968;2023-01-28T02:49:51;-2.10;1.00
34135;DHT22;20410;55.578;12.968;2023-01-28T02:58:34;-2.00;1.00
34135;DHT22;20410;55.578;12.968;2023-01-28T03:03:49;-2.10;1.00
34135;DHT22;20410;55.578;12.968;2023-01-28T03:06:20;-2.20;1.00
34135;DHT22;20410;55.578;12.968;2023-01-28T03:08:52;-2.30;1.00
34135;DHT22;20410;55.578;12.968;2023-01-28T03:11:42;-2.30;1.00
34135;DHT22;20410;55.578;12.968;2023-01-28T03:14:29;-2.30;1.00
34135;DHT22;20410;55.578;12.968;2023-01-28T03:17:25;-2.20;1.00
34135;DHT22;20410;55.578;12.968;2023-01-28T03:20:11;-2.20;1.00
34135;DHT22;20410;55.578;12.968;2023-01-28T03:23:00;-2.20;1.00
34135;DHT22;20410;55.578;12.968;2023-01-28T03:25:48;-2.20;1.00
34135;DHT22;20410;55.578;12.968;2023-01-28T03:28:37;-2.10;1.00
34135;DHT22;20410;55.578;12.968;2023-01-28T03:31:22;-2.10;1.00
34135;DHT22;20410;55.578;12.968;2023-01-28T03:34:10;-2.10;1.00
34135;DHT22;20410;55.578;12.968;2023-01-28T03:36:55;-2.00;1.00
34135;DHT22;20410;55.578;12.968;2023-01-28T03:39:27;-2.00;1.00
34135;DHT22;20410;55.578;12.968;2023-01-28T03:41:59;-2.00;1.00
34135;DHT22;20410;55.578;12.968;2023-01-28T03:44:27;-2.00;1.00
34135;DHT22;20410;55.578;12.968;2023-01-28T03:47:11;-1.90;1.00
34135;DHT22;20410;55.578;12.968;2023-01-28T03:49:42;-1.80;1.00
34135;DHT22;20410;55.578;12.968;2023-01-28T03:52:10;-1.60;1.00
34135;DHT22;20410;55.578;12.968;2023-01-28T03:54:36;-1.50;1.00
34135;DHT22;20410;55.578;12.968;2023-01-28T03:57:02;-1.40;1.00
34135;DHT22;20410;55.578;12.968;2023-01-28T03:59:28;-1.30;1.00
34135;DHT22;20410;55.578;12.968;2023-01-28T04:01:53;-1.20;1.00
34135;DHT22;20410;55.578;12.968;2023-01-28T04:04:20;-1.10;1.00
34135;DHT22;20410;55.578;12.968;2023-01-28T04:06:52;-1.10;1.00
34135;DHT22;20410;55.578;12.968;2023-01-28T04:09:20;-1.10;1.00
34135;DHT22;20410;55.578;12.968;2023-01-28T04:11:46;-0.90;1.00
34135;DHT22;20410;55.578;12.968;2023-01-28T04:14:12;-0.90;1.00
34135;DHT22;20410;55.578;12.968;2023-01-28T04:16:40;-0.80;1.00
34135;DHT22;20410;55.578;12.968;2023-01-28T04:19:06;-0.70;1.00
34135;DHT22;20410;55.578;12.968;2023-01-28T04:21:32;-0.60;1.00
34135;DHT22;20410;55.578;12.968;2023-01-28T04:23:57;-0.50;1.00
34135;DHT22;20410;55.578;12.968;2023-01-28T04:26:23;-0.50;1.00
34135;DHT22;20410;55.578;12.968;2023-01-28T04:28:48;-0.40;1.00
34135;DHT22;20410;55.578;12.968;2023-01-28T04:31:14;-0.40;1.00
34135;DHT22;20410;55.578;12.968;2023-01-28T04:33:40;-0.30;1.00
34135;DHT22;20410;55.578;12.968;2023-01-28T04:36:05;-0.30;1.00
34135;DHT22;20410;55.578;12.968;2023-01-28T04:38:31;-0.30;1.00
34135;DHT22;20410;55.578;12.968;2023-01-28T04:40:56;-0.30;1.00
34135;DHT22;20410;55.578;12.968;2023-01-28T04:43:22;-0.30;1.00
34135;DHT22;20410;55.578;12.968;2023-01-28T04:45:48;-0.40;1.00
34135;DHT22;20410;55.578;12.968;2023-01-28T04:48:14;-0.30;1.00
34135;DHT22;20410;55.578;12.968;2023-01-28T04:50:41;-0.20;1.00
34135;DHT22;20410;55.578;12.968;2023-01-28T04:53:07;-0.10;1.00
34135;DHT22;20410;55.578;12.968;2023-01-28T04:55:33;-0.10;1.00
34135;DHT22;20410;55.578;12.968;2023-01-28T04:57:58;0.00;1.00
34135;DHT22;20410;55.578;12.968;2023-01-28T05:00:24;0.10;1.00
34135;DHT22;20410;55.578;12.968;2023-01-28T05:02:50;0.10;1.00
34135;DHT22;20410;55.578;12.968;2023-01-28T05:05:15;0.20;1.00
34135;DHT22;20410;55.578;12.968;2023-01-28T05:07:41;0.20;1.00
34135;DHT22;20410;55.578;12.968;2023-01-28T05:10:07;0.20;1.00
34135;DHT22;20410;55.578;12.968;2023-01-28T05:12:33;0.20;1.00
34135;DHT22;20410;55.578;12.968;2023-01-28T05:14:59;0.30;1.00
34135;DHT22;20410;55.578;12.968;2023-01-28T05:17:26;0.30;1.00
34135;DHT22;20410;55.578;12.968;2023-01-28T05:19:51;0.20;1.00
34135;DHT22;20410;55.578;12.968;2023-01-28T05:22:17;0.20;1.00
34135;DHT22;20410;55.578;12.968;2023-01-28T05:24:43;0.20;1.00
34135;DHT22;20410;55.578;12.968;2023-01-28T05:27:08;0.20;1.00
34135;DHT22;20410;55.578;12.968;2023-01-28T05:29:34;0.30;1.00
34135;DHT22;20410;55.578;12.968;2023-01-28T05:31:59;0.20;1.00
34135;DHT22;20410;55.578;12.968;2023-01-28T05:34:25;0.20;1.00
34135;DHT22;20410;55.578;12.968;2023-01-28T05:36:51;0.20;1.00
34135;DHT22;20410;55.578;12.968;2023-01-28T05:39:16;0.30;1.00
34135;DHT22;20410;55.578;12.968;2023-01-28T05:41:42;0.20;1.00
34135;DHT22;20410;55.578;12.968;2023-01-28T05:44:07;0.20;1.00
34135;DHT22;20410;55.578;12.968;2023-01-28T05:46:33;0.20;1.00
34135;DHT22;20410;55.578;12.968;2023-01-28T05:48:59;0.30;1.00
34135;DHT22;20410;55.578;12.968;2023-01-28T05:51:24;0.30;1.00
34135;DHT22;20410;55.578;12.968;2023-01-28T05:53:50;0.30;1.00
34135;DHT22;20410;55.578;12.968;2023-01-28T05:56:15;0.30;1.00
34135;DHT22;20410;55.578;12.968;2023-01-28T05:58:41;0.30;1.00
34135;DHT22;20410;55.578;12.968;2023-01-28T06:01:06;0.40;1.00
34135;DHT22;20410;55.578;12.968;2023-01-28T06:03:32;0.40;1.00
34135;DHT22;20410;55.578;12.968;2023-01-28T06:05:58;0.40;1.00
34135;DHT22;20410;55.578;12.968;2023-01-28T06:08:23;0.40;1.00
34135;DHT22;20410;55.578;12.968;2023-01-28T06:10:49;0.50;1.00
34135;DHT22;20410;55.578;12.968;2023-01-28T06:13:14;0.60;1.00
34135;DHT22;20410;55.578;12.968;2023-01-28T06:15:40;0.60;1.00
34135;DHT22;20410;55.578;12.968;2023-01-28T06:18:05;0.50;1.00
34135;DHT22;20410;55.578;12.968;2023-01-28T06:20:31;0.50;1.00
34135;DHT22;20410;55.578;12.968;2023-01-28T06:22:56;0.50;1.00
34135;DHT22;20410;55.578;12.968;2023-01-28T06:25:22;0.50;1.00
34135;DHT22;20410;55.578;12.968;2023-01-28T06:27:48;0.60;1.00
34135;DHT22;20410;55.578;12.968;2023-01-28T06:30:13;0.60;1.00
34135;DHT22;20410;55.578;12.968;2023-01-28T06:32:39;0.60;1.00
34135;DHT22;20410;55.578;12.968;2023-01-28T06:35:05;0.60;1.00
34135;DHT22;20410;55.578;12.968;2023-01-28T06:37:30;0.60;1.00
34135;DHT22;20410;55.578;12.968;2023-01-28T06:39:56;0.60;1.00
34135;DHT22;20410;55.578;12.968;2023-01-28T06:42:22;0.60;1.00
34135;DHT22;20410;55.578;12.968;2023-01-28T06:44:47;0.60;1.00
34135;DHT22;20410;55.578;12.968;2023-01-28T06:47:13;0.60;1.00
34135;DHT22;20410;55.578;12.968;2023-01-28T06:49:39;0.60;1.00
34135;DHT22;20410;55.578;12.968;2023-01-28T06:52:05;0.60;1.00
34135;DHT22;20410;55.578;12.968;2023-01-28T06:54:31;0.60;1.00
34135;DHT22;20410;55.578;12.968;2023-01-28T06:56:56;0.60;1.00
34135;DHT22;20410;55.578;12.968;2023-01-28T06:59:22;0.60;1.00
34135;DHT22;20410;55.578;12.968;2023-01-28T07:01:48;0.60;1.00
34135;DHT22;20410;55.578;12.968;2023-01-28T07:04:13;0.60;1.00
34135;DHT22;20410;55.578;12.968;2023-01-28T07:06:39;0.50;1.00
34135;DHT22;20410;55.578;12.968;2023-01-28T07:09:04;0.50;1.00
34135;DHT22;20410;55.578;12.968;2023-01-28T07:11:30;0.50;1.00
34135;DHT22;20410;55.578;12.968;2023-01-28T07:13:56;0.50;1.00
34135;DHT22;20410;55.578;12.968;2023-01-28T07:16:21;0.60;1.00
34135;DHT22;20410;55.578;12.968;2023-01-28T07:18:47;0.60;1.00
34135;DHT22;20410;55.578;12.968;2023-01-28T07:21:12;0.70;1.00
34135;DHT22;20410;55.578;12.968;2023-01-28T07:23:38;0.60;1.00
34135;DHT22;20410;55.578;12.968;2023-01-28T07:26:04;0.60;1.00
34135;DHT22;20410;55.578;12.968;2023-01-28T07:28:31;0.60;1.00
34135;DHT22;20410;55.578;12.968;2023-01-28T07:30:57;0.70;1.00
34135;DHT22;20410;55.578;12.968;2023-01-28T07:33:23;0.70;1.00
34135;DHT22;20410;55.578;12.968;2023-01-28T07:35:48;0.80;1.00
34135;DHT22;20410;55.578;12.968;2023-01-28T07:38:14;0.80;1.00
34135;DHT22;20410;55.578;12.968;2023-01-28T07:40:40;0.80;1.00
34135;DHT22;20410;55.578;12.968;2023-01-28T07:43:08;0.90;1.00
34135;DHT22;20410;55.578;12.968;2023-01-28T07:45:34;0.90;1.00
34135;DHT22;20410;55.578;12.968;2023-01-28T07:48:05;1.00;1.00
34135;DHT22;20410;55.578;12.968;2023-01-28T07:50:33;1.00;1.00
34135;DHT22;20410;55.578;12.968;2023-01-28T07:53:02;1.10;1.00
34135;DHT22;20410;55.578;12.968;2023-01-28T07:55:27;1.10;1.00
34135;DHT22;20410;55.578;12.968;2023-01-28T07:57:58;1.20;1.00
34135;DHT22;20410;55.578;12.968;2023-01-28T08:00:25;1.20;1.00
34135;DHT22;20410;55.578;12.968;2023-01-28T08:02:59;1.20;1.00
34135;DHT22;20410;55.578;12.968;2023-01-28T08:05:27;1.30;1.00
34135;DHT22;20410;55.578;12.968;2023-01-28T08:07:54;1.30;1.00
34135;DHT22;20410;55.578;12.968;2023-01-28T08:10:20;1.40;1.00
34135;DHT22;20410;55.578;12.968;2023-01-28T08:12:53;1.50;1.00
34135;DHT22;20410;55.578;12.968;2023-01-28T08:15:19;1.60;1.00
34135;DHT22;20410;55.578;12.968;2023-01-28T08:17:45;1.70;1.00
34135;DHT22;20410;55.578;12.968;2023-01-28T08:20:10;1.90;1.00
34135;DHT22;20410;55.578;12.968;2023-01-28T08:22:36;2.00;1.00
34135;DHT22;20410;55.578;12.968;2023-01-28T08:25:02;2.10;1.00
34135;DHT22;20410;55.578;12.968;2023-01-28T08:27:27;2.20;1.00
34135;DHT22;20410;55.578;12.968;2023-01-28T08:29:53;2.10;1.00
34135;DHT22;20410;55.578;12.968;2023-01-28T08:32:18;2.10;1.00
34135;DHT22;20410;55.578;12.968;2023-01-28T08:34:44;2.10;1.00
34135;DHT22;20410;55.578;12.968;2023-01-28T08:37:10;2.10;1.00
34135;DHT22;20410;55.578;12.968;2023-01-28T08:39:35;2.20;1.00
34135;DHT22;20410;55.578;12.968;2023-01-28T08:42:01;2.10;1.00
34135;DHT22;20410;55.578;12.968;2023-01-28T08:44:26;2.10;1.00
34135;DHT22;20410;55.578;12.968;2023-01-28T08:46:52;2.10;1.00
34135;DHT22;20410;55.578;12.968;2023-01-28T08:49:17;2.10;1.00
34135;DHT22;20410;55.578;12.968;2023-01-28T08:51:43;2.10;1.00
34135;DHT22;20410;55.578;12.968;2023-01-28T08:54:08;2.10;1.00
34135;DHT22;20410;55.578;12.968;2023-01-28T08:56:34;2.20;1.00
34135;DHT22;20410;55.578;12.968;2023-01-28T08:59:00;2.10;1.00
34135;DHT22;20410;55.578;12.968;2023-01-28T09:01:25;2.10;1.00
34135;DHT22;20410;55.578;12.968;2023-01-28T09:03:53;2.10;1.00
34135;DHT22;20410;55.578;12.968;2023-01-28T09:06:19;2.20;1.00
34135;DHT22;20410;55.578;12.968;2023-01-28T09:08:44;2.10;1.00
34135;DHT22;20410;55.578;12.968;2023-01-28T09:11:10;2.10;1.00
34135;DHT22;20410;55.578;12.968;2023-01-28T09:13:35;2.20;1.00
34135;DHT22;20410;55.578;12.968;2023-01-28T09:16:04;2.20;1.00
34135;DHT22;20410;55.578;12.968;2023-01-28T09:18:30;2.20;1.00
34135;DHT22;20410;55.578;12.968;2023-01-28T09:20:55;2.30;1.00
34135;DHT22;20410;55.578;12.968;2023-01-28T09:23:21;2.30;1.00
34135;DHT22;20410;55.578;12.968;2023-01-28T09:25:46;2.30;1.00
34135;DHT22;20410;55.578;12.968;2023-01-28T09:28:12;2.30;1.00
34135;DHT22;20410;55.578;12.968;2023-01-28T09:30:38;2.30;1.00
34135;DHT22;20410;55.578;12.968;2023-01-28T09:33:04;2.30;1.00
34135;DHT22;20410;55.578;12.968;2023-01-28T09:35:30;2.30;1.00
34135;DHT22;20410;55.578;12.968;2023-01-28T09:37:56;2.30;1.00
34135;DHT22;20410;55.578;12.968;2023-01-28T09:40:41;2.30;1.00
34135;DHT22;20410;55.578;12.968;2023-01-28T09:45:54;2.30;1.00
34135;DHT22;20410;55.578;12.968;2023-01-28T09:48:26;2.40;1.00
34135;DHT22;20410;55.578;12.968;2023-01-28T09:50:55;2.40;1.00
34135;DHT22;20410;55.578;12.968;2023-01-28T09:53:27;2.50;1.00
34135;DHT22;20410;55.578;12.968;2023-01-28T09:58:24;2.50;1.00
34135;DHT22;20410;55.578;12.968;2023-01-28T10:03:43;2.60;1.00
34135;DHT22;20410;55.578;12.968;2023-01-28T10:06:27;2.60;1.00
34135;DHT22;20410;55.578;12.968;2023-01-28T10:09:32;2.60;1.00
34135;DHT22;20410;55.578;12.968;2023-01-28T10:15:25;2.70;1.00
34135;DHT22;20410;55.578;12.968;2023-01-28T10:17:58;2.70;1.00
34135;DHT22;20410;55.578;12.968;2023-01-28T10:20:36;2.80;1.00
34135;DHT22;20410;55.578;12.968;2023-01-28T10:23:33;2.90;1.00
34135;DHT22;20410;55.578;12.968;2023-01-28T10:26:03;2.90;1.00
34135;DHT22;20410;55.578;12.968;2023-01-28T10:28:29;2.90;1.00
34135;DHT22;20410;55.578;12.968;2023-01-28T10:30:55;2.90;1.00
34135;DHT22;20410;55.578;12.968;2023-01-28T10:33:32;2.90;1.00
34135;DHT22;20410;55.578;12.968;2023-01-28T10:36:00;2.90;1.00
34135;DHT22;20410;55.578;12.968;2023-01-28T10:38:27;2.90;1.00
34135;DHT22;20410;55.578;12.968;2023-01-28T10:40:59;3.00;1.00
34135;DHT22;20410;55.578;12.968;2023-01-28T10:43:30;3.10;1.00
34135;DHT22;20410;55.578;12.968;2023-01-28T10:48:32;3.10;1.00
34135;DHT22;20410;55.578;12.968;2023-01-28T10:51:01;3.10;1.00
34135;DHT22;20410;55.578;12.968;2023-01-28T10:53:47;3.10;1.00
34135;DHT22;20410;55.578;12.968;2023-01-28T11:01:36;3.10;1.00
34135;DHT22;20410;55.578;12.968;2023-01-28T11:04:03;3.10;1.00
34135;DHT22;20410;55.578;12.968;2023-01-28T11:06:28;3.10;1.00
34135;DHT22;20410;55.578;12.968;2023-01-28T11:08:54;3.10;1.00
34135;DHT22;20410;55.578;12.968;2023-01-28T11:11:25;3.10;1.00
34135;DHT22;20410;55.578;12.968;2023-01-28T11:13:51;3.20;1.00
34135;DHT22;20410;55.578;12.968;2023-01-28T11:16:19;3.20;1.00
34135;DHT22;20410;55.578;12.968;2023-01-28T11:18:49;3.30;1.00
34135;DHT22;20410;55.578;12.968;2023-01-28T11:21:22;3.40;1.00
34135;DHT22;20410;55.578;12.968;2023-01-28T11:23:57;3.40;1.00
34135;DHT22;20410;55.578;12.968;2023-01-28T11:26:26;3.40;1.00
34135;DHT22;20410;55.578;12.968;2023-01-28T11:28:52;3.40;1.00
34135;DHT22;20410;55.578;12.968;2023-01-28T11:31:21;3.40;1.00
34135;DHT22;20410;55.578;12.968;2023-01-28T11:36:22;3.50;1.00
34135;DHT22;20410;55.578;12.968;2023-01-28T11:38:49;3.50;1.00
34135;DHT22;20410;55.578;12.968;2023-01-28T11:41:15;3.50;1.00
34135;DHT22;20410;55.578;12.968;2023-01-28T11:43:42;3.50;1.00
34135;DHT22;20410;55.578;12.968;2023-01-28T11:46:24;3.40;1.00
34135;DHT22;20410;55.578;12.968;2023-01-28T11:57:20;3.60;1.00
34135;DHT22;20410;55.578;12.968;2023-01-28T12:02:54;3.50;1.00
34135;DHT22;20410;55.578;12.968;2023-01-28T12:08:18;3.60;1.00
34135;DHT22;20410;55.578;12.968;2023-01-28T12:10:58;3.60;1.00
34135;DHT22;20410;55.578;12.968;2023-01-28T12:13:38;3.50;1.00
34135;DHT22;20410;55.578;12.968;2023-01-28T12:24:51;3.70;1.00
34135;DHT22;20410;55.578;12.968;2023-01-28T12:41:09;3.80;1.00
34135;DHT22;20410;55.578;12.968;2023-01-28T12:43:45;3.90;1.00
34135;DHT22;20410;55.578;12.968;2023-01-28T12:49:09;3.90;1.00
34135;DHT22;20410;55.578;12.968;2023-01-28T12:51:56;3.90;1.00
34135;DHT22;20410;55.578;12.968;2023-01-28T12:54:52;3.90;1.00
34135;DHT22;20410;55.578;12.968;2023-01-28T12:57:28;3.90;1.00
34135;DHT22;20410;55.578;12.968;2023-01-28T13:02:41;3.90;1.00
34135;DHT22;20410;55.578;12.968;2023-01-28T13:05:21;3.80;1.00
34135;DHT22;20410;55.578;12.968;2023-01-28T13:07:58;3.80;1.00
34135;DHT22;20410;55.578;12.968;2023-01-28T13:13:05;3.80;1.00
34135;DHT22;20410;55.578;12.968;2023-01-28T13:15:31;3.80;1.00
34135;DHT22;20410;55.578;12.968;2023-01-28T13:18:03;3.80;1.00
34135;DHT22;20410;55.578;12.968;2023-01-28T13:20:51;3.80;1.00
34135;DHT22;20410;55.578;12.968;2023-01-28T13:26:26;3.80;1.00
34135;DHT22;20410;55.578;12.968;2023-01-28T13:29:05;3.90;1.00
34135;DHT22;20410;55.578;12.968;2023-01-28T13:31:37;3.90;1.00
34135;DHT22;20410;55.578;12.968;2023-01-28T13:34:05;4.00;1.00
34135;DHT22;20410;55.578;12.968;2023-01-28T13:41:53;3.90;1.00
34135;DHT22;20410;55.578;12.968;2023-01-28T13:44:32;3.80;1.00
34135;DHT22;20410;55.578;12.968;2023-01-28T13:49:46;3.90;1.00
34135;DHT22;20410;55.578;12.968;2023-01-28T13:52:19;3.90;1.00
34135;DHT22;20410;55.578;12.968;2023-01-28T13:57:41;3.90;1.00
34135;DHT22;20410;55.578;12.968;2023-01-28T14:00:28;3.90;1.00
34135;DHT22;20410;55.578;12.968;2023-01-28T14:03:39;4.00;1.00
34135;DHT22;20410;55.578;12.968;2023-01-28T14:09:49;4.00;1.00
34135;DHT22;20410;55.578;12.968;2023-01-28T14:15:21;4.10;1.00
34135;DHT22;20410;55.578;12.968;2023-01-28T14:17:54;4.10;1.00
34135;DHT22;20410;55.578;12.968;2023-01-28T14:20:30;4.10;1.00
34135;DHT22;20410;55.578;12.968;2023-01-28T14:23:00;4.10;1.00
34135;DHT22;20410;55.578;12.968;2023-01-28T14:28:34;4.20;1.00
34135;DHT22;20410;55.578;12.968;2023-01-28T14:31:07;4.20;1.00
34135;DHT22;20410;55.578;12.968;2023-01-28T14:33:34;4.20;1.00
34135;DHT22;20410;55.578;12.968;2023-01-28T14:36:00;4.20;1.00
34135;DHT22;20410;55.578;12.968;2023-01-28T14:38:27;4.20;1.00
34135;DHT22;20410;55.578;12.968;2023-01-28T14:40:53;4.20;1.00
34135;DHT22;20410;55.578;12.968;2023-01-28T14:43:22;4.20;1.00
34135;DHT22;20410;55.578;12.968;2023-01-28T14:56:59;4.10;1.00
34135;DHT22;20410;55.578;12.968;2023-01-28T15:01:58;4.00;1.00
34135;DHT22;20410;55.578;12.968;2023-01-28T15:04:29;4.10;1.00
34135;DHT22;20410;55.578;12.968;2023-01-28T15:06:56;4.00;1.00
34135;DHT22;20410;55.578;12.968;2023-01-28T15:09:22;4.00;1.00
34135;DHT22;20410;55.578;12.968;2023-01-28T15:11:51;4.00;1.00
34135;DHT22;20410;55.578;12.968;2023-01-28T15:14:25;4.00;1.00
34135;DHT22;20410;55.578;12.968;2023-01-28T15:16:51;4.10;1.00
34135;DHT22;20410;55.578;12.968;2023-01-28T15:19:26;4.10;1.00
34135;DHT22;20410;55.578;12.968;2023-01-28T15:21:57;4.00;1.00
34135;DHT22;20410;55.578;12.968;2023-01-28T15:24:24;4.00;1.00
34135;DHT22;20410;55.578;12.968;2023-01-28T15:26:50;4.00;1.00
34135;DHT22;20410;55.578;12.968;2023-01-28T15:29:24;4.00;1.00
34135;DHT22;20410;55.578;12.968;2023-01-28T15:31:50;4.10;1.00
34135;DHT22;20410;55.578;12.968;2023-01-28T15:34:17;4.10;1.00
34135;DHT22;20410;55.578;12.968;2023-01-28T15:36:43;4.10;1.00
34135;DHT22;20410;55.578;12.968;2023-01-28T15:39:16;4.10;1.00
34135;DHT22;20410;55.578;12.968;2023-01-28T15:41:47;4.10;1.00
34135;DHT22;20410;55.578;12.968;2023-01-28T15:44:30;4.10;1.00
34135;DHT22;20410;55.578;12.968;2023-01-28T15:47:01;4.10;1.00
34135;DHT22;20410;55.578;12.968;2023-01-28T15:49:30;4.00;1.00
34135;DHT22;20410;55.578;12.968;2023-01-28T15:51:58;4.10;1.00
34135;DHT22;20410;55.578;12.968;2023-01-28T15:54:24;4.10;1.00
34135;DHT22;20410;55.578;12.968;2023-01-28T15:56:51;4.10;1.00
34135;DHT22;20410;55.578;12.968;2023-01-28T15:59:24;4.10;1.00
34135;DHT22;20410;55.578;12.968;2023-01-28T16:01:57;4.10;1.00
34135;DHT22;20410;55.578;12.968;2023-01-28T16:04:30;4.10;1.00
34135;DHT22;20410;55.578;12.968;2023-01-28T16:06:56;4.10;1.00
34135;DHT22;20410;55.578;12.968;2023-01-28T16:09:27;4.10;1.00
34135;DHT22;20410;55.578;12.968;2023-01-28T16:12:03;4.10;1.00
34135;DHT22;20410;55.578;12.968;2023-01-28T16:17:20;4.10;1.00
34135;DHT22;20410;55.578;12.968;2023-01-28T16:19:49;4.10;1.00
34135;DHT22;20410;55.578;12.968;2023-01-28T16:22:20;4.10;1.00
34135;DHT22;20410;55.578;12.968;2023-01-28T16:24:51;4.10;1.00
34135;DHT22;20410;55.578;12.968;2023-01-28T16:27:21;4.10;1.00
34135;DHT22;20410;55.578;12.968;2023-01-28T16:29:47;4.10;1.00
34135;DHT22;20410;55.578;12.968;2023-01-28T16:32:40;4.10;2.40
34135;DHT22;20410;55.578;12.968;2023-01-28T16:35:21;4.10;1.00
34135;DHT22;20410;55.578;12.968;2023-01-28T16:37:48;4.10;1.00
34135;DHT22;20410;55.578;12.968;2023-01-28T16:40:16;4.10;9.90
34135;DHT22;20410;55.578;12.968;2023-01-28T16:42:43;4.10;11.60
34135;DHT22;20410;55.578;12.968;2023-01-28T16:45:19;4.10;14.50
34135;DHT22;20410;55.578;12.968;2023-01-28T16:47:45;4.10;15.90
34135;DHT22;20410;55.578;12.968;2023-01-28T16:50:12;4.10;19.00
34135;DHT22;20410;55.578;12.968;2023-01-28T16:52:39;4.10;25.10
34135;DHT22;20410;55.578;12.968;2023-01-28T16:55:10;4.10;25.10
34135;DHT22;20410;55.578;12.968;2023-01-28T16:57:36;4.10;27.00
34135;DHT22;20410;55.578;12.968;2023-01-28T17:00:03;4.20;28.50
34135;DHT22;20410;55.578;12.968;2023-01-28T17:02:29;4.10;28.80
34135;DHT22;20410;55.578;12.968;2023-01-28T17:04:55;4.20;27.50
34135;DHT22;20410;55.578;12.968;2023-01-28T17:07:20;4.10;25.30
34135;DHT22;20410;55.578;12.968;2023-01-28T17:09:46;4.10;28.70
34135;DHT22;20410;55.578;12.968;2023-01-28T17:12:12;4.20;27.50
34135;DHT22;20410;55.578;12.968;2023-01-28T17:14:37;4.20;29.10
34135;DHT22;20410;55.578;12.968;2023-01-28T17:17:03;4.20;34.90
34135;DHT22;20410;55.578;12.968;2023-01-28T17:19:29;4.20;32.20
34135;DHT22;20410;55.578;12.968;2023-01-28T17:21:57;4.20;29.10
34135;DHT22;20410;55.578;12.968;2023-01-28T17:24:25;4.20;30.70
34135;DHT22;20410;55.578;12.968;2023-01-28T17:26:51;4.20;32.90
34135;DHT22;20410;55.578;12.968;2023-01-28T17:29:17;4.20;34.80
34135;DHT22;20410;55.578;12.968;2023-01-28T17:31:43;4.30;40.10
34135;DHT22;20410;55.578;12.968;2023-01-28T17:34:09;4.30;32.30
34135;DHT22;20410;55.578;12.968;2023-01-28T17:36:36;4.30;29.70
34135;DHT22;20410;55.578;12.968;2023-01-28T17:39:08;4.30;30.00
34135;DHT22;20410;55.578;12.968;2023-01-28T17:41:34;4.30;27.90
34135;DHT22;20410;55.578;12.968;2023-01-28T17:43:59;4.30;29.30
34135;DHT22;20410;55.578;12.968;2023-01-28T17:46:25;4.30;31.60
34135;DHT22;20410;55.578;12.968;2023-01-28T17:48:52;4.30;34.80
34135;DHT22;20410;55.578;12.968;2023-01-28T17:51:18;4.20;37.40
34135;DHT22;20410;55.578;12.968;2023-01-28T17:53:48;4.20;45.70
34135;DHT22;20410;55.578;12.968;2023-01-28T17:56:25;4.30;42.50
34135;DHT22;20410;55.578;12.968;2023-01-28T17:58:53;4.30;46.50
34135;DHT22;20410;55.578;12.968;2023-01-28T18:01:20;4.30;45.40
34135;DHT22;20410;55.578;12.968;2023-01-28T18:03:46;4.30;45.50
34135;DHT22;20410;55.578;12.968;2023-01-28T18:06:15;4.40;51.20
34135;DHT22;20410;55.578;12.968;2023-01-28T18:08:40;4.40;43.30